Ryan, Oklahoma
Current Conditions -  °F | °C
As of 5:15 AM on Sunday 21 Dec 2014 (Local Time) from K0F2 Reporting Station
Haze Haze  
Wind Chill: 40°   Ceiling: 500
Heat Index: 45°   Visibility: 4mi
Dew Point: 44°   Wind: 8mph
Humidity: 97%   Direction: 150°SSE
Pressure: 30.06"   Gusts: NA
Location:  34.02°N, 97.96°W
Report Text: K0F2 211115Z AUTO 15007KT 4SM BR OVC005 07/07 A3006 RMK AO2 T00700065
Loading
Personal Weather Stations






























Interactive Weather Map New forecast layout! Learn more

10-Day Weather Forecast

Advertisements
Track Severe Weather on mobile